Time;durP1;ratioP1;P1;durP2;ratioP2;P2;SDS_P1;SDS_P2;PMS_P1;PMS_P2;Temp;Humidity;BMP_temperature;BMP_pressure;BME280_temperature;BME280_humidity;BME280_pressure;Samples;Min_cycle;Max_cycle;Signal;HPM_P1;HPM_P2
2023/07/31 00:01:57;;;;;;;7.15;3.13;;;;;;;;;;5062539;28;20305;-51
2023/07/31 00:04:23;;;;;;;6.00;3.88;;;;;;;;;;5046701;28;20210;-50
2023/07/31 00:06:49;;;;;;;5.35;3.10;;;;;;;;;;5053629;28;20266;-51
2023/07/31 00:09:14;;;;;;;4.35;3.05;;;;;;;;;;5046401;28;20314;-50
2023/07/31 00:11:40;;;;;;;5.32;3.55;;;;;;;;;;5049850;28;20183;-51
2023/07/31 00:14:06;;;;;;;6.15;3.33;;;;;;;;;;5047181;28;20525;-51
2023/07/31 00:16:32;;;;;;;3.72;2.80;;;;;;;;;;5048482;28;20184;-50
2023/07/31 00:18:58;;;;;;;4.03;2.95;;;;;;;;;;5052327;28;20466;-51
2023/07/31 00:21:24;;;;;;;4.88;3.03;;;;;;;;;;5049367;28;20202;-50
2023/07/31 00:23:50;;;;;;;5.22;3.72;;;;;;;;;;5058449;28;20204;-51
2023/07/31 00:26:16;;;;;;;6.68;3.25;;;;;;;;;;5051414;28;20181;-51
2023/07/31 00:28:42;;;;;;;5.90;3.13;;;;;;;;;;5045490;28;20186;-50
2023/07/31 00:31:08;;;;;;;4.03;2.95;;;;;;;;;;5055847;28;20509;-51
2023/07/31 00:33:36;;;;;;;4.13;2.85;;;;;;;;;;5049593;28;20193;-51
2023/07/31 00:36:02;;;;;;;4.05;2.60;;;;;;;;;;5055996;28;20470;-50
2023/07/31 00:38:28;;;;;;;5.82;3.00;;;;;;;;;;5054022;28;20187;-50
2023/07/31 00:40:54;;;;;;;5.30;2.58;;;;;;;;;;5040762;28;20267;-50
2023/07/31 00:43:19;;;;;;;4.20;2.60;;;;;;;;;;5044853;28;20214;-51
2023/07/31 00:45:45;;;;;;;2.47;2.20;;;;;;;;;;5054270;28;20215;-51
2023/07/31 00:48:11;;;;;;;7.00;2.88;;;;;;;;;;5052778;28;20210;-52
2023/07/31 00:50:38;;;;;;;4.65;2.60;;;;;;;;;;5050308;28;20574;-51
2023/07/31 00:53:04;;;;;;;8.35;2.40;;;;;;;;;;5061681;28;20187;-51
2023/07/31 00:55:30;;;;;;;4.75;2.40;;;;;;;;;;5054816;28;20191;-52
2023/07/31 00:57:56;;;;;;;3.05;2.03;;;;;;;;;;5049745;28;20190;-51
2023/07/31 01:00:22;;;;;;;4.28;2.20;;;;;;;;;;5049945;28;20250;-51
2023/07/31 01:02:49;;;;;;;4.97;2.35;;;;;;;;;;5051754;28;20624;-52
2023/07/31 01:05:15;;;;;;;3.85;2.08;;;;;;;;;;5056210;28;20183;-52
2023/07/31 01:07:56;;;;;;;5.63;2.20;;;;;;;;;;5053679;28;20183;-52
2023/07/31 01:10:24;;;;;;;3.17;2.03;;;;;;;;;;5049862;28;20726;-52
2023/07/31 01:12:51;;;;;;;3.65;2.13;;;;;;;;;;5052258;28;20461;-51
2023/07/31 01:15:17;;;;;;;2.65;2.03;;;;;;;;;;5050563;28;20192;-52
2023/07/31 01:17:43;;;;;;;4.22;2.15;;;;;;;;;;5049894;28;20211;-52
2023/07/31 01:20:17;;;;;;;2.03;1.83;;;;;;;;;;5050328;28;20175;-52
2023/07/31 01:23:02;;;;;;;4.82;1.70;;;;;;;;;;5054610;28;20221;-51
2023/07/31 01:25:40;;;;;;;3.00;1.95;;;;;;;;;;5055494;28;20194;-52
2023/07/31 01:28:12;;;;;;;2.33;1.80;;;;;;;;;;5055122;28;20199;-52
2023/07/31 01:30:41;;;;;;;3.20;1.80;;;;;;;;;;5050858;28;20176;-52
2023/07/31 01:33:09;;;;;;;2.70;1.70;;;;;;;;;;5053666;28;20446;-51
2023/07/31 01:35:35;;;;;;;3.28;1.58;;;;;;;;;;5043455;28;20266;-51
2023/07/31 01:38:05;;;;;;;2.45;1.80;;;;;;;;;;5049678;28;20187;-51
2023/07/31 01:40:31;;;;;;;4.47;1.60;;;;;;;;;;5044571;28;20237;-52
2023/07/31 01:42:56;;;;;;;2.97;1.80;;;;;;;;;;5051152;28;20206;-52
2023/07/31 01:45:22;;;;;;;2.88;1.73;;;;;;;;;;5052346;28;20547;-51
2023/07/31 01:47:48;;;;;;;4.30;1.85;;;;;;;;;;5051382;28;20179;-52
2023/07/31 01:50:14;;;;;;;1.77;1.52;;;;;;;;;;5053344;28;20183;-51
2023/07/31 01:52:40;;;;;;;3.38;1.70;;;;;;;;;;5054846;28;20186;-52
2023/07/31 01:55:06;;;;;;;3.10;1.85;;;;;;;;;;5051271;28;20589;-52
2023/07/31 01:57:32;;;;;;;5.20;2.20;;;;;;;;;;5052243;28;20789;-52
2023/07/31 01:59:58;;;;;;;5.50;2.10;;;;;;;;;;5048392;28;20229;-52
2023/07/31 02:02:24;;;;;;;3.45;1.50;;;;;;;;;;5053416;28;20289;-52
2023/07/31 02:04:50;;;;;;;2.92;1.60;;;;;;;;;;5053141;28;20179;-52
2023/07/31 02:07:16;;;;;;;3.30;1.77;;;;;;;;;;5054094;28;20305;-52
2023/07/31 02:09:42;;;;;;;3.15;1.65;;;;;;;;;;5050437;28;20508;-52
2023/07/31 02:12:08;;;;;;;2.72;1.58;;;;;;;;;;5045678;28;20601;-52
2023/07/31 02:14:34;;;;;;;2.47;1.63;;;;;;;;;;5051380;28;20225;-52
2023/07/31 02:17:01;;;;;;;5.65;1.85;;;;;;;;;;5052573;28;20561;-52
2023/07/31 02:19:26;;;;;;;2.72;1.60;;;;;;;;;;5046499;28;20189;-52
2023/07/31 02:21:52;;;;;;;4.20;1.58;;;;;;;;;;5055719;28;20187;-52
2023/07/31 02:24:18;;;;;;;2.47;1.42;;;;;;;;;;5059849;28;20503;-52
2023/07/31 02:26:44;;;;;;;3.90;1.67;;;;;;;;;;5054062;28;20183;-52
2023/07/31 02:29:10;;;;;;;2.17;1.63;;;;;;;;;;5054229;28;20182;-52
2023/07/31 02:31:36;;;;;;;3.00;1.67;;;;;;;;;;5049498;28;20463;-52
2023/07/31 02:34:02;;;;;;;3.05;1.70;;;;;;;;;;5055478;28;20218;-52
2023/07/31 02:36:28;;;;;;;1.92;1.60;;;;;;;;;;5051654;28;20187;-52
2023/07/31 02:38:55;;;;;;;3.63;1.45;;;;;;;;;;5053460;28;20190;-52
2023/07/31 02:41:21;;;;;;;4.50;1.80;;;;;;;;;;5046758;28;20182;-52
2023/07/31 02:43:47;;;;;;;2.75;1.52;;;;;;;;;;5061244;28;20202;-52
2023/07/31 02:46:12;;;;;;;3.05;1.52;;;;;;;;;;5042823;28;20183;-52
2023/07/31 02:48:38;;;;;;;2.20;1.63;;;;;;;;;;5037652;28;20234;-52
2023/07/31 02:51:04;;;;;;;3.45;1.67;;;;;;;;;;5051621;28;20171;-52
2023/07/31 02:53:30;;;;;;;2.00;1.40;;;;;;;;;;5057626;28;20577;-52
2023/07/31 02:55:56;;;;;;;2.83;1.70;;;;;;;;;;5053656;28;20183;-52
2023/07/31 02:58:22;;;;;;;4.20;1.40;;;;;;;;;;5054224;28;20183;-52
2023/07/31 03:00:48;;;;;;;4.35;1.55;;;;;;;;;;5045219;28;20222;-52
2023/07/31 03:03:14;;;;;;;2.25;1.40;;;;;;;;;;5052310;28;20301;-52
2023/07/31 03:05:40;;;;;;;1.95;1.60;;;;;;;;;;5052983;28;20449;-52
2023/07/31 03:08:06;;;;;;;1.75;1.30;;;;;;;;;;5052784;28;20221;-52
2023/07/31 03:10:32;;;;;;;3.20;1.60;;;;;;;;;;5047655;28;20179;-52
2023/07/31 03:12:58;;;;;;;2.20;1.30;;;;;;;;;;5053704;28;20232;-51
2023/07/31 03:15:24;;;;;;;1.48;1.35;;;;;;;;;;5052163;28;20266;-52
2023/07/31 03:17:50;;;;;;;3.47;1.58;;;;;;;;;;5053862;28;20266;-57
2023/07/31 03:20:16;;;;;;;2.83;1.20;;;;;;;;;;5052873;28;20191;-52
2023/07/31 03:22:41;;;;;;;2.13;1.65;;;;;;;;;;5062349;28;20206;-52
2023/07/31 03:25:09;;;;;;;2.40;1.45;;;;;;;;;;5073891;28;20195;-52
2023/07/31 03:27:35;;;;;;;3.78;1.85;;;;;;;;;;5052763;28;20171;-52
2023/07/31 03:30:01;;;;;;;3.83;1.30;;;;;;;;;;5053117;28;20176;-52
2023/07/31 03:32:27;;;;;;;2.92;1.67;;;;;;;;;;5063420;28;20233;-52
2023/07/31 03:34:53;;;;;;;4.07;1.58;;;;;;;;;;5055542;28;20219;-52
2023/07/31 03:37:19;;;;;;;3.97;1.55;;;;;;;;;;5056046;28;20445;-52
2023/07/31 03:39:45;;;;;;;6.65;1.42;;;;;;;;;;5053840;28;20184;-52
2023/07/31 03:42:11;;;;;;;2.95;1.60;;;;;;;;;;5051323;28;20605;-52
2023/07/31 03:44:37;;;;;;;1.85;1.40;;;;;;;;;;5047650;28;20222;-53
2023/07/31 03:47:03;;;;;;;6.07;1.35;;;;;;;;;;5052370;28;20489;-52
2023/07/31 03:49:29;;;;;;;4.63;2.00;;;;;;;;;;5046947;28;20214;-52
2023/07/31 03:51:55;;;;;;;3.97;1.63;;;;;;;;;;5057547;28;20207;-52
2023/07/31 03:54:21;;;;;;;4.80;1.60;;;;;;;;;;5046440;28;20183;-52
2023/07/31 03:56:47;;;;;;;4.07;1.60;;;;;;;;;;5049710;28;20270;-52
2023/07/31 03:59:12;;;;;;;5.22;1.50;;;;;;;;;;5056509;28;20572;-52
2023/07/31 04:01:38;;;;;;;5.57;1.60;;;;;;;;;;5057060;28;20423;-52
2023/07/31 04:04:05;;;;;;;3.25;1.38;;;;;;;;;;5047666;28;20247;-52
2023/07/31 04:06:31;;;;;;;4.20;1.55;;;;;;;;;;5054019;28;20266;-52
2023/07/31 04:08:57;;;;;;;3.75;1.70;;;;;;;;;;5053333;28;20507;-52
2023/07/31 04:11:23;;;;;;;3.88;1.67;;;;;;;;;;5054828;28;20206;-52
2023/07/31 04:13:49;;;;;;;3.65;1.42;;;;;;;;;;5054933;28;20233;-52
2023/07/31 04:16:15;;;;;;;5.43;2.03;;;;;;;;;;5054946;28;20278;-52
2023/07/31 04:18:41;;;;;;;5.88;1.88;;;;;;;;;;5053050;28;20187;-52
2023/07/31 04:21:07;;;;;;;3.42;1.65;;;;;;;;;;5052441;28;20183;-52
2023/07/31 04:23:33;;;;;;;4.43;1.75;;;;;;;;;;5054205;28;20289;-52
2023/07/31 04:25:59;;;;;;;5.78;1.85;;;;;;;;;;5051699;28;20244;-52
2023/07/31 04:28:25;;;;;;;4.53;1.67;;;;;;;;;;5054771;28;20212;-52
2023/07/31 04:30:52;;;;;;;2.70;1.48;;;;;;;;;;5048147;28;20176;-52
2023/07/31 04:33:19;;;;;;;4.07;1.52;;;;;;;;;;5053333;28;20201;-52
2023/07/31 04:35:52;;;;;;;3.10;1.83;;;;;;;;;;5054192;28;20481;-52
2023/07/31 04:38:18;;;;;;;3.92;1.55;;;;;;;;;;5056029;28;20186;-52
2023/07/31 04:40:44;;;;;;;5.18;1.95;;;;;;;;;;5055896;28;20187;-52
2023/07/31 04:43:10;;;;;;;3.15;1.30;;;;;;;;;;5055650;28;20222;-51
2023/07/31 04:45:36;;;;;;;5.35;1.85;;;;;;;;;;5056591;28;20179;-52
2023/07/31 04:48:02;;;;;;;4.60;1.65;;;;;;;;;;5056211;28;20468;-52
2023/07/31 04:50:30;;;;;;;4.10;1.80;;;;;;;;;;5050415;28;20179;-52
2023/07/31 04:52:56;;;;;;;2.58;1.48;;;;;;;;;;5057987;28;20632;-51
2023/07/31 04:55:22;;;;;;;3.78;1.50;;;;;;;;;;5049837;28;20191;-51
2023/07/31 04:57:47;;;;;;;3.45;1.67;;;;;;;;;;5049800;28;20245;-51
2023/07/31 05:00:13;;;;;;;2.35;1.17;;;;;;;;;;5051660;28;20191;-52
2023/07/31 05:02:39;;;;;;;2.25;1.70;;;;;;;;;;5054169;28;20265;-51
2023/07/31 05:05:05;;;;;;;2.05;1.30;;;;;;;;;;5056044;28;20203;-52
2023/07/31 05:07:31;;;;;;;4.50;1.40;;;;;;;;;;5048357;28;20578;-51
2023/07/31 05:09:57;;;;;;;5.72;1.55;;;;;;;;;;5048367;28;20183;-51
2023/07/31 05:12:23;;;;;;;2.05;1.35;;;;;;;;;;5045450;28;20183;-51
2023/07/31 05:14:49;;;;;;;3.65;1.48;;;;;;;;;;5070848;28;20202;-51
2023/07/31 05:17:15;;;;;;;4.95;1.80;;;;;;;;;;5061325;28;20301;-52
2023/07/31 05:19:41;;;;;;;13.85;1.92;;;;;;;;;;5050693;28;20191;-52
2023/07/31 05:22:07;;;;;;;5.25;1.83;;;;;;;;;;5054782;28;20225;-51
2023/07/31 05:24:33;;;;;;;6.40;2.05;;;;;;;;;;5055127;28;20559;-52
2023/07/31 05:26:59;;;;;;;7.57;2.10;;;;;;;;;;5054888;28;20489;-52
2023/07/31 05:29:25;;;;;;;2.58;1.65;;;;;;;;;;5055308;28;20237;-51
2023/07/31 05:31:51;;;;;;;3.75;1.73;;;;;;;;;;5054219;28;20183;-52
2023/07/31 05:34:17;;;;;;;3.97;1.90;;;;;;;;;;5053244;28;20182;-52
2023/07/31 05:36:43;;;;;;;3.88;1.35;;;;;;;;;;5049131;28;20190;-52
2023/07/31 05:39:09;;;;;;;2.60;1.55;;;;;;;;;;5043175;28;20552;-52
2023/07/31 05:41:36;;;;;;;3.92;1.55;;;;;;;;;;5053839;28;20253;-51
2023/07/31 05:44:02;;;;;;;4.65;1.70;;;;;;;;;;5054353;28;20210;-51
2023/07/31 05:46:27;;;;;;;3.15;1.70;;;;;;;;;;5054549;28;20429;-52
2023/07/31 05:48:53;;;;;;;4.30;1.88;;;;;;;;;;5048872;28;20187;-52
2023/07/31 05:51:19;;;;;;;6.05;1.90;;;;;;;;;;5047589;28;20785;-52
2023/07/31 05:53:45;;;;;;;5.35;1.60;;;;;;;;;;5057531;28;20191;-52
2023/07/31 05:56:11;;;;;;;4.80;1.58;;;;;;;;;;5053098;28;20175;-52
2023/07/31 05:58:37;;;;;;;2.90;1.50;;;;;;;;;;5048730;28;20233;-52
2023/07/31 06:01:03;;;;;;;5.43;1.88;;;;;;;;;;5046709;28;20205;-52
2023/07/31 06:03:30;;;;;;;1.48;1.33;;;;;;;;;;5050279;28;20253;-52
2023/07/31 06:05:56;;;;;;;4.65;1.92;;;;;;;;;;5048275;28;20175;-52
2023/07/31 06:08:22;;;;;;;5.97;1.83;;;;;;;;;;5046841;28;20183;-52
2023/07/31 06:10:48;;;;;;;4.50;1.70;;;;;;;;;;5046840;28;20570;-52
2023/07/31 06:13:14;;;;;;;4.65;1.75;;;;;;;;;;5053536;28;20191;-52
2023/07/31 06:15:39;;;;;;;4.93;1.52;;;;;;;;;;5048571;28;20583;-51
2023/07/31 06:18:07;;;;;;;8.27;1.90;;;;;;;;;;5046109;28;20183;-51
2023/07/31 06:20:33;;;;;;;2.97;1.55;;;;;;;;;;5049645;28;20188;-52
2023/07/31 06:22:59;;;;;;;3.00;1.65;;;;;;;;;;5055482;28;20207;-51
2023/07/31 06:25:25;;;;;;;4.63;1.90;;;;;;;;;;5052991;28;20517;-45
2023/07/31 06:27:51;;;;;;;4.85;1.70;;;;;;;;;;5053387;28;20261;-49
2023/07/31 06:30:17;;;;;;;4.63;1.70;;;;;;;;;;5051636;28;20270;-51
2023/07/31 06:32:43;;;;;;;5.07;1.50;;;;;;;;;;5048627;28;20211;-50
2023/07/31 06:35:10;;;;;;;2.80;1.50;;;;;;;;;;5052556;28;20558;-50
2023/07/31 06:37:36;;;;;;;4.95;2.13;;;;;;;;;;5048764;28;20191;-48
2023/07/31 06:40:01;;;;;;;9.00;1.63;;;;;;;;;;5052763;28;20590;-46
2023/07/31 06:42:27;;;;;;;4.38;1.45;;;;;;;;;;5053241;28;20260;-47
2023/07/31 06:44:53;;;;;;;6.38;2.08;;;;;;;;;;5054144;28;20187;-48
2023/07/31 06:47:19;;;;;;;5.95;1.50;;;;;;;;;;5040100;28;20198;-48
2023/07/31 06:49:45;;;;;;;4.40;1.70;;;;;;;;;;5053350;28;20498;-51
2023/07/31 06:52:11;;;;;;;6.47;1.70;;;;;;;;;;5054785;28;20228;-45
2023/07/31 06:54:37;;;;;;;5.03;1.33;;;;;;;;;;5055560;28;20446;-48
2023/07/31 06:57:03;;;;;;;7.10;1.70;;;;;;;;;;5054112;28;20189;-50
2023/07/31 06:59:29;;;;;;;5.60;1.52;;;;;;;;;;5052485;28;20269;-49
2023/07/31 07:01:55;;;;;;;4.13;1.52;;;;;;;;;;5047617;28;20313;-49
2023/07/31 07:04:21;;;;;;;3.35;1.30;;;;;;;;;;5053188;28;20203;-49
2023/07/31 07:06:47;;;;;;;4.75;1.58;;;;;;;;;;5056636;28;20183;-49
2023/07/31 09:35:22;;;;;;;2.13;1.42;;;;;;;;;;5076138;28;20186;-51
2023/07/31 09:37:52;;;;;;;1.85;1.30;;;;;;;;;;5012531;28;20223;-51
2023/07/31 09:40:34;;;;;;;2.88;1.50;;;;;;;;;;5027648;28;20196;-51
2023/07/31 09:43:10;;;;;;;2.08;1.50;;;;;;;;;;5029271;28;20270;-51
2023/07/31 09:45:37;;;;;;;3.53;1.52;;;;;;;;;;5032826;28;20175;-48
2023/07/31 09:48:04;;;;;;;5.72;1.65;;;;;;;;;;5028661;28;20416;-48
2023/07/31 09:50:30;;;;;;;4.07;1.50;;;;;;;;;;5029254;28;20272;-50
2023/07/31 09:52:56;;;;;;;2.92;1.90;;;;;;;;;;5032158;28;20267;-55
2023/07/31 09:55:22;;;;;;;2.67;1.70;;;;;;;;;;5032178;28;20359;-57
2023/07/31 09:57:49;;;;;;;3.78;2.15;;;;;;;;;;5034711;28;20211;-49
